Time;durP1;ratioP1;P1;durP2;ratioP2;P2;SDS_P1;SDS_P2;PMS_P1;PMS_P2;Temp;Humidity;BMP_temperature;BMP_pressure;BME280_temperature;BME280_humidity;BME280_pressure;Samples;Min_cycle;Max_cycle;Signal;HPM_P1;HPM_P2
2022/09/20 00:01:50;;;;;;;3.30;1.05;;;;;;;-140.66;100.00;55571.53;5056384;28;20025;-70
2022/09/20 00:04:36;;;;;;;1.15;1.00;;;;;;;-140.66;100.00;55571.53;5056344;28;20029;-70
2022/09/20 00:07:21;;;;;;;1.85;0.93;;;;;;;-140.66;100.00;55571.53;5056771;28;20029;-69
2022/09/20 00:10:07;;;;;;;1.85;0.80;;;;;;;-140.66;100.00;55571.53;5056348;28;20381;-70
2022/09/20 00:12:53;;;;;;;1.00;0.90;;;;;;;-140.66;100.00;55571.53;5055012;28;20036;-70
2022/09/20 00:15:41;;;;;;;1.77;0.80;;;;;;;-140.66;100.00;55571.53;5055985;28;20056;-70
2022/09/20 00:18:27;;;;;;;1.50;0.90;;;;;;;-140.66;100.00;55571.53;5056031;28;20028;-69
2022/09/20 00:21:18;;;;;;;1.08;0.70;;;;;;;-140.66;100.00;55571.53;5056383;28;20463;-70
2022/09/20 00:24:04;;;;;;;1.00;0.85;;;;;;;-140.66;100.00;55571.53;5041859;28;20075;-71
2022/09/20 00:26:50;;;;;;;0.80;0.75;;;;;;;-140.66;100.00;55571.53;5056497;28;20025;-69
2022/09/20 00:29:36;;;;;;;1.05;0.80;;;;;;;-140.66;100.00;55571.53;5056072;28;20450;-69
2022/09/20 00:32:22;;;;;;;1.77;1.10;;;;;;;-140.66;100.00;55571.53;5055837;28;20041;-69
2022/09/20 00:35:09;;;;;;;1.00;0.90;;;;;;;-140.66;100.00;55571.53;5040903;28;20116;-70
2022/09/20 00:37:55;;;;;;;1.70;1.13;;;;;;;-140.66;100.00;55571.53;5040581;28;20028;-69
2022/09/20 00:40:43;;;;;;;1.88;1.15;;;;;;;-140.66;100.00;55571.53;5056339;28;20365;-70
2022/09/20 00:43:41;;;;;;;1.50;1.10;;;;;;;-140.66;100.00;55571.53;5055818;28;20025;-70
2022/09/20 00:46:44;;;;;;;2.22;1.15;;;;;;;-140.66;100.00;55571.53;5055010;28;20025;-70
2022/09/20 00:49:31;;;;;;;1.33;1.00;;;;;;;-140.66;100.00;55571.53;5055579;28;20417;-70
2022/09/20 00:52:19;;;;;;;1.30;1.02;;;;;;;-140.66;100.00;55571.53;5055188;28;20033;-69
2022/09/20 00:55:07;;;;;;;1.55;1.05;;;;;;;-140.66;100.00;55571.53;5055021;28;20378;-69
2022/09/20 00:57:53;;;;;;;1.38;1.00;;;;;;;-140.66;100.00;55571.53;5055788;28;20037;-69
2022/09/20 01:00:41;;;;;;;3.95;1.30;;;;;;;-140.66;100.00;55571.53;5055229;28;20047;-69
2022/09/20 01:03:30;;;;;;;2.00;1.27;;;;;;;-140.66;100.00;55571.53;5055292;28;20055;-69
2022/09/20 01:06:17;;;;;;;1.90;1.30;;;;;;;-140.66;100.00;55571.53;5055118;28;20021;-69
2022/09/20 01:09:06;;;;;;;1.27;1.00;;;;;;;-140.66;100.00;55571.53;5055581;28;20174;-70
2022/09/20 01:11:54;;;;;;;1.98;1.33;;;;;;;-140.66;100.00;55571.53;5055125;28;20139;-69
2022/09/20 01:14:42;;;;;;;3.22;1.10;;;;;;;-140.66;100.00;55571.53;5040151;28;20040;-71
2022/09/20 01:17:31;;;;;;;2.10;1.30;;;;;;;-140.66;100.00;55571.53;5055417;28;20396;-70
2022/09/20 01:20:34;;;;;;;1.50;1.30;;;;;;;-140.66;100.00;55571.53;5055300;28;20029;-69
2022/09/20 01:23:29;;;;;;;2.17;1.70;;;;;;;-140.66;100.00;55571.53;5055707;28;20051;-68
2022/09/20 01:26:33;;;;;;;3.15;1.60;;;;;;;-140.66;100.00;55571.53;5039598;28;20361;-69
2022/09/20 01:29:36;;;;;;;2.28;1.75;;;;;;;-140.66;100.00;55571.53;5055362;28;20033;-70
2022/09/20 01:32:26;;;;;;;2.05;1.55;;;;;;;-140.66;100.00;55571.53;5055011;28;20432;-69
2022/09/20 01:35:15;;;;;;;5.07;1.40;;;;;;;-140.66;100.00;55571.53;5054618;28;20033;-70
2022/09/20 01:38:27;;;;;;;1.95;1.50;;;;;;;-140.66;100.00;55571.53;5054897;28;20071;-69
2022/09/20 01:41:22;;;;;;;1.67;1.50;;;;;;;-140.66;100.00;55571.53;5055359;28;20090;-69
2022/09/20 01:44:21;;;;;;;2.10;1.73;;;;;;;-140.66;100.00;55571.53;5054694;28;20025;-71
2022/09/20 01:47:25;;;;;;;2.40;1.83;;;;;;;-140.66;100.00;55571.53;5054360;28;20029;-69
2022/09/20 01:50:29;;;;;;;3.05;2.00;;;;;;;-140.66;100.00;55571.53;5054849;28;20038;-69
2022/09/20 01:53:20;;;;;;;2.35;1.80;;;;;;;-140.66;100.00;55571.53;5053988;28;20029;-70
2022/09/20 01:56:19;;;;;;;2.00;1.80;;;;;;;-140.66;100.00;55571.53;5053052;28;20111;-69
2022/09/20 01:59:34;;;;;;;2.10;1.90;;;;;;;-140.66;100.00;55571.53;5054406;28;20025;-69
2022/09/20 02:02:42;;;;;;;2.42;2.00;;;;;;;-140.66;100.00;55571.53;5051743;28;20043;-70
2022/09/20 02:05:38;;;;;;;2.63;1.98;;;;;;;-140.66;100.00;55571.53;5052803;28;20040;-70
2022/09/20 02:08:46;;;;;;;2.50;2.20;;;;;;;-140.66;100.00;55571.53;5054864;28;20025;-70
2022/09/20 02:12:02;;;;;;;2.35;2.15;;;;;;;-140.66;100.00;55571.53;5054709;28;20036;-70
2022/09/20 02:15:06;;;;;;;2.83;2.45;;;;;;;-140.66;100.00;55571.53;5052901;28;20028;-69
2022/09/20 02:17:55;;;;;;;2.97;2.47;;;;;;;-140.66;100.00;55571.53;5052921;28;20033;-70
2022/09/20 02:20:49;;;;;;;5.57;2.58;;;;;;;-140.66;100.00;55571.53;5054219;28;20079;-70
2022/09/20 02:23:57;;;;;;;3.50;2.83;;;;;;;-140.66;100.00;55571.53;5053964;28;20025;-70
2022/09/20 02:27:27;;;;;;;3.75;2.50;;;;;;;-140.66;100.00;55571.53;5053993;28;20114;-69
2022/09/20 02:30:33;;;;;;;4.88;2.83;;;;;;;-140.66;100.00;55571.53;5046474;28;20503;-70
2022/09/20 02:33:51;;;;;;;2.70;2.42;;;;;;;-140.66;100.00;55571.53;5054277;28;20484;-69
2022/09/20 02:36:56;;;;;;;4.00;3.10;;;;;;;-140.66;100.00;55571.53;5038175;28;20060;-70
2022/09/20 02:40:07;;;;;;;3.75;2.95;;;;;;;-140.66;100.00;55571.53;5038857;28;20110;-69
2022/09/20 02:43:17;;;;;;;5.90;3.10;;;;;;;-140.66;100.00;55571.53;5053986;28;20025;-69
2022/09/20 02:46:36;;;;;;;4.15;3.25;;;;;;;-140.66;100.00;55571.53;5038897;28;20017;-69
2022/09/20 02:49:37;;;;;;;4.68;3.10;;;;;;;-140.66;100.00;55571.53;5038969;28;20060;-69
2022/09/20 02:52:39;;;;;;;5.50;3.50;;;;;;;-140.66;100.00;55571.53;5053933;28;20044;-70
2022/09/20 02:55:37;;;;;;;4.90;3.33;;;;;;;-140.66;100.00;55571.53;5053226;28;20128;-69
2022/09/20 02:58:41;;;;;;;3.67;3.20;;;;;;;-140.66;100.00;55571.53;5054035;28;20032;-69
2022/09/20 03:01:35;;;;;;;4.03;3.10;;;;;;;-140.66;100.00;55571.53;5052518;28;20046;-71
2022/09/20 03:04:35;;;;;;;4.03;3.58;;;;;;;-140.66;100.00;55571.53;5054432;28;20039;-70
2022/09/20 03:07:49;;;;;;;3.50;3.10;;;;;;;-140.66;100.00;55571.53;5057325;28;20097;-69
2022/09/20 03:11:13;;;;;;;3.70;3.30;;;;;;;-140.66;100.00;55571.53;5058059;28;20112;-70
2022/09/20 03:14:09;;;;;;;3.97;3.53;;;;;;;-140.66;100.00;55571.53;5042172;28;20017;-71
2022/09/20 03:17:19;;;;;;;4.30;3.50;;;;;;;-140.66;100.00;55571.53;5057143;28;20025;-69
2022/09/20 03:20:25;;;;;;;5.18;4.18;;;;;;;-140.66;100.00;55571.53;5056284;28;20021;-71
2022/09/20 03:23:30;;;;;;;4.45;4.05;;;;;;;-140.66;100.00;55571.53;5042025;28;20021;-69
2022/09/20 03:26:22;;;;;;;4.95;3.60;;;;;;;-140.66;100.00;55571.53;5057303;28;20120;-71
2022/09/20 03:29:20;;;;;;;4.40;3.35;;;;;;;-140.66;100.00;55571.53;5057307;28;20025;-70
2022/09/20 03:32:24;;;;;;;5.93;4.40;;;;;;;-140.66;100.00;55571.53;5057483;28;20121;-70
2022/09/20 03:35:28;;;;;;;5.47;4.47;;;;;;;-140.66;100.00;55571.53;5042048;28;20476;-70
2022/09/20 03:38:33;;;;;;;5.40;4.60;;;;;;;-140.66;100.00;55571.53;5057270;28;20036;-71
2022/09/20 03:41:29;;;;;;;5.72;4.18;;;;;;;-140.66;100.00;55571.53;5042146;28;20021;-70
2022/09/20 03:44:18;;;;;;;6.57;4.30;;;;;;;-140.66;100.00;55571.53;5056633;28;20028;-70
2022/09/20 03:47:12;;;;;;;6.47;4.40;;;;;;;-140.66;100.00;55571.53;5056985;28;20029;-70
2022/09/20 03:50:30;;;;;;;4.80;4.22;;;;;;;-140.66;100.00;55571.53;5041621;28;20029;-70
2022/09/20 03:53:27;;;;;;;5.03;4.32;;;;;;;-140.66;100.00;55571.53;5055682;28;20334;-69
2022/09/20 03:56:53;;;;;;;5.32;4.78;;;;;;;-140.66;100.00;55571.53;5056240;28;20049;-70
2022/09/20 03:59:41;;;;;;;7.70;6.32;;;;;;;-140.66;100.00;55571.53;5041528;28;20035;-71
2022/09/20 04:02:43;;;;;;;7.93;6.35;;;;;;;-140.66;100.00;55571.53;5041216;28;20519;-70
2022/09/20 04:05:49;;;;;;;5.93;5.07;;;;;;;-140.66;100.00;55571.53;5056449;28;20047;-70
2022/09/20 04:08:46;;;;;;;5.65;4.68;;;;;;;-140.66;100.00;55571.53;5056171;28;20024;-70
2022/09/20 04:11:49;;;;;;;5.85;4.97;;;;;;;-140.66;100.00;55571.53;5056177;28;20044;-70
2022/09/20 04:14:46;;;;;;;6.07;4.32;;;;;;;-140.66;100.00;55571.53;5056028;28;20445;-70
2022/09/20 04:17:44;;;;;;;6.13;4.65;;;;;;;-140.66;100.00;55571.53;5055296;28;20112;-70
2022/09/20 04:21:16;;;;;;;6.95;5.72;;;;;;;-140.66;100.00;55571.53;5040745;28;20025;-70
2022/09/20 04:24:06;;;;;;;6.82;5.10;;;;;;;-140.66;100.00;55571.53;4995535;28;20455;-70
2022/09/20 04:27:30;;;;;;;5.70;4.78;;;;;;;-140.66;100.00;55571.53;5056016;28;20037;-69
2022/09/20 04:30:28;;;;;;;6.72;4.88;;;;;;;-140.66;100.00;55571.53;5041374;28;20465;-70
2022/09/20 04:33:20;;;;;;;5.18;4.47;;;;;;;-140.66;100.00;55571.53;5056230;28;20029;-68
2022/09/20 04:36:28;;;;;;;6.78;5.05;;;;;;;-140.66;100.00;55571.53;5055604;28;20112;-70
2022/09/20 04:39:39;;;;;;;5.53;4.80;;;;;;;-140.66;100.00;55571.53;5055625;28;20112;-69
2022/09/20 04:42:51;;;;;;;5.82;4.57;;;;;;;-140.66;100.00;55571.53;5055680;28;20062;-69
2022/09/20 04:46:21;;;;;;;7.25;5.05;;;;;;;-140.66;100.00;55571.53;5055861;28;20020;-69
2022/09/20 04:49:45;;;;;;;7.00;4.43;;;;;;;-140.66;100.00;55571.53;4994592;28;20041;-68
2022/09/20 04:52:48;;;;;;;9.63;5.72;;;;;;;-140.66;100.00;55571.53;4995940;28;20537;-68
2022/09/20 04:55:59;;;;;;;7.50;5.38;;;;;;;-140.66;100.00;55571.53;5055150;28;20053;-68
2022/09/20 04:58:48;;;;;;;6.82;5.35;;;;;;;-140.66;100.00;55571.53;5055670;28;20479;-69
2022/09/20 05:02:06;;;;;;;7.28;5.93;;;;;;;-140.66;100.00;55571.53;5055304;28;20342;-69
2022/09/20 05:04:57;;;;;;;8.35;4.97;;;;;;;-140.66;100.00;55571.53;5055892;28;20106;-68
2022/09/20 05:08:01;;;;;;;6.07;4.97;;;;;;;-140.66;100.00;55571.53;5055129;28;20029;-69
2022/09/20 05:11:07;;;;;;;5.88;4.78;;;;;;;-140.66;100.00;55571.53;5055021;28;20032;-69
2022/09/20 05:13:56;;;;;;;6.95;4.65;;;;;;;-140.66;100.00;55571.53;5055232;28;20047;-69
2022/09/20 05:17:00;;;;;;;9.07;5.85;;;;;;;-140.66;100.00;55571.53;5054834;28;20033;-69
2022/09/20 05:20:04;;;;;;;6.10;4.57;;;;;;;-140.66;100.00;55571.53;5054714;28;20043;-68
2022/09/20 05:23:18;;;;;;;5.97;5.20;;;;;;;-140.66;100.00;55571.53;5055136;28;20035;-69
2022/09/20 05:26:15;;;;;;;6.65;4.85;;;;;;;-140.66;100.00;55571.53;5053616;28;20029;-69
2022/09/20 05:29:34;;;;;;;7.00;5.72;;;;;;;-140.66;100.00;55571.53;5053777;28;20186;-69
2022/09/20 05:32:34;;;;;;;7.20;5.50;;;;;;;-140.66;100.00;55571.53;5032337;28;20489;-69
2022/09/20 05:35:39;;;;;;;11.32;6.82;;;;;;;-140.66;100.00;55571.53;5054187;28;20029;-69
2022/09/20 05:39:00;;;;;;;7.60;6.22;;;;;;;-140.66;100.00;55571.53;5039203;28;20462;-69
2022/09/20 05:42:12;;;;;;;10.77;6.75;;;;;;;-140.66;100.00;55571.53;5054392;28;20033;-68
2022/09/20 05:45:16;;;;;;;6.85;5.72;;;;;;;-140.66;100.00;55571.53;5054879;28;20021;-69
2022/09/20 05:48:18;;;;;;;6.50;5.57;;;;;;;-140.66;100.00;55571.53;5054237;28;20043;-68
2022/09/20 05:51:28;;;;;;;6.22;4.97;;;;;;;-140.66;100.00;55571.53;5054458;28;20020;-70
2022/09/20 05:54:41;;;;;;;8.25;5.50;;;;;;;-140.66;100.00;55571.53;5054560;28;20052;-68
2022/09/20 05:58:02;;;;;;;7.53;5.40;;;;;;;-140.66;100.00;55571.53;5054150;28;20120;-69
2022/09/20 06:01:01;;;;;;;7.82;6.57;;;;;;;-140.66;100.00;55571.53;5054257;28;20025;-68
2022/09/20 06:03:54;;;;;;;14.82;6.68;;;;;;;-140.66;100.00;55571.53;5054126;28;20024;-69
2022/09/20 06:06:50;;;;;;;6.05;4.90;;;;;;;-140.66;100.00;55571.53;5053666;28;20025;-68
2022/09/20 06:09:59;;;;;;;5.97;5.07;;;;;;;-140.66;100.00;55571.53;5054523;28;20036;-69
2022/09/20 06:12:56;;;;;;;8.52;5.38;;;;;;;-140.66;100.00;55571.53;5054325;28;20063;-69
2022/09/20 06:16:04;;;;;;;6.05;4.68;;;;;;;-140.66;100.00;55571.53;5053658;28;20040;-68
2022/09/20 06:19:08;;;;;;;5.95;5.18;;;;;;;-140.66;100.00;55571.53;5053955;28;20458;-68
2022/09/20 06:21:57;;;;;;;8.38;4.50;;;;;;;-140.66;100.00;55571.53;5053854;28;20021;-69
2022/09/20 06:25:11;;;;;;;4.32;3.72;;;;;;;-140.66;100.00;55571.53;5054287;28;20517;-69
2022/09/20 06:28:05;;;;;;;5.45;3.97;;;;;;;-140.66;100.00;55571.53;5054069;28;20110;-69
2022/09/20 06:30:53;;;;;;;6.65;4.82;;;;;;;-140.66;100.00;55571.53;5053885;28;20033;-68
2022/09/20 06:33:49;;;;;;;9.30;5.78;;;;;;;-140.66;100.00;55571.53;5054670;28;20021;-68
2022/09/20 06:43:20;;;;;;;5.88;3.45;;;;;;;-140.66;100.00;55571.53;5057726;28;20095;-69
2022/09/20 06:46:06;;;;;;;5.95;3.50;;;;;;;-140.66;100.00;55571.53;5058151;28;20020;-67
2022/09/20 06:48:53;;;;;;;4.18;3.40;;;;;;;-140.66;100.00;55571.53;5057596;28;20025;-68
2022/09/20 06:51:39;;;;;;;4.78;3.78;;;;;;;-140.66;100.00;55571.53;5057946;28;20039;-68
2022/09/20 06:54:25;;;;;;;5.97;3.20;;;;;;;-140.66;100.00;55571.53;5057507;28;20039;-68
2022/09/20 06:57:32;;;;;;;3.42;3.08;;;;;;;-140.66;100.00;55571.53;5058186;28;20060;-68
2022/09/20 07:00:18;;;;;;;3.88;3.33;;;;;;;-140.66;100.00;55571.53;5042673;28;20441;-68
2022/09/20 07:03:05;;;;;;;4.68;3.63;;;;;;;-140.66;100.00;55571.53;5057287;28;20033;-69
2022/09/20 07:05:50;;;;;;;5.05;3.25;;;;;;;-140.66;100.00;55571.53;5057599;28;20056;-68
2022/09/20 07:08:37;;;;;;;4.25;3.35;;;;;;;-140.66;100.00;55571.53;5057404;28;20043;-69
2022/09/20 07:11:23;;;;;;;3.35;3.03;;;;;;;-140.66;100.00;55571.53;5042408;28;20036;-69
2022/09/20 07:14:09;;;;;;;3.40;2.85;;;;;;;-140.66;100.00;55571.53;5057135;28;20101;-69
2022/09/20 07:16:55;;;;;;;4.40;3.15;;;;;;;-140.66;100.00;55571.53;5057565;28;20029;-68
2022/09/20 07:19:40;;;;;;;6.38;3.50;;;;;;;-140.66;100.00;55571.53;5057352;28;20098;-68
2022/09/20 07:22:27;;;;;;;7.20;4.80;;;;;;;-140.66;100.00;55571.53;5057412;28;20108;-68
2022/09/20 07:25:13;;;;;;;3.75;3.10;;;;;;;-140.66;100.00;55571.53;5056928;28;20358;-68
2022/09/20 07:27:59;;;;;;;8.82;4.22;;;;;;;-140.66;100.00;55571.53;5056937;28;20044;-67
2022/09/20 07:30:45;;;;;;;4.45;3.50;;;;;;;-140.66;100.00;55571.53;5056938;28;20079;-69
2022/09/20 07:33:30;;;;;;;7.78;4.00;;;;;;;-140.66;100.00;55571.53;5056713;28;20025;-71
2022/09/20 07:36:16;;;;;;;5.07;3.20;;;;;;;-140.66;100.00;55571.53;5057688;28;20115;-69
2022/09/20 07:39:02;;;;;;;5.43;3.15;;;;;;;-140.66;100.00;55571.53;5057111;28;20516;-69
2022/09/20 07:41:49;;;;;;;3.85;3.05;;;;;;;-140.66;100.00;55571.53;5056633;28;20033;-69
2022/09/20 07:44:35;;;;;;;3.67;3.00;;;;;;;-140.66;100.00;55571.53;5057110;28;20108;-69
2022/09/20 07:47:22;;;;;;;3.88;3.10;;;;;;;-140.66;100.00;55571.53;5041950;28;20369;-69
2022/09/20 07:50:10;;;;;;;4.22;2.78;;;;;;;-140.66;100.00;55571.53;5057088;28;20060;-71
2022/09/20 07:52:56;;;;;;;7.00;3.20;;;;;;;-140.66;100.00;55571.53;5055515;28;20029;-69
2022/09/20 07:55:42;;;;;;;7.35;3.30;;;;;;;-140.66;100.00;55571.53;5056165;28;20064;-69
2022/09/20 07:58:30;;;;;;;3.90;3.30;;;;;;;-140.66;100.00;55571.53;5041337;28;20029;-69
2022/09/20 08:01:16;;;;;;;5.65;3.30;;;;;;;-140.66;100.00;55571.53;5042981;28;20032;-68
2022/09/20 08:04:07;;;;;;;8.05;4.32;;;;;;;-140.66;100.00;55571.53;5056638;28;20029;-71
2022/09/20 08:06:53;;;;;;;4.85;2.83;;;;;;;-140.66;100.00;55571.53;5041479;28;20029;-72
2022/09/20 08:09:39;;;;;;;5.75;3.30;;;;;;;-140.66;100.00;55571.53;5056069;28;20032;-70
2022/09/20 08:12:25;;;;;;;4.95;3.20;;;;;;;-140.66;100.00;55571.53;5056229;28;20033;-69
2022/09/20 08:15:11;;;;;;;4.78;2.30;;;;;;;-140.66;100.00;55571.53;5056012;28;20090;-72
2022/09/20 08:17:57;;;;;;;5.78;3.38;;;;;;;-140.66;100.00;55571.53;5056124;28;20044;-70
2022/09/20 08:20:42;;;;;;;7.18;3.50;;;;;;;-140.66;100.00;55571.53;5041085;28;20039;-71
2022/09/20 08:23:28;;;;;;;4.80;3.15;;;;;;;-140.66;100.00;55571.53;5041048;28;20029;-70
2022/09/20 08:26:18;;;;;;;4.57;2.65;;;;;;;-140.66;100.00;55571.53;5055781;28;20094;-72
2022/09/20 08:29:04;;;;;;;3.65;2.80;;;;;;;-140.66;100.00;55571.53;5055932;28;20021;-71
2022/09/20 08:31:51;;;;;;;4.38;2.50;;;;;;;-140.66;100.00;55571.53;5055933;28;20183;-71
2022/09/20 08:34:38;;;;;;;4.65;2.10;;;;;;;-140.66;100.00;55571.53;5055721;28;20457;-70
2022/09/20 08:37:24;;;;;;;3.70;2.42;;;;;;;-140.66;100.00;55571.53;5056155;28;20476;-69
2022/09/20 08:40:17;;;;;;;5.10;2.10;;;;;;;-140.66;100.00;55571.53;5055535;28;20060;-70
2022/09/20 08:43:02;;;;;;;16.10;8.52;;;;;;;-140.66;100.00;55571.53;5040768;28;20029;-71
2022/09/20 08:45:48;;;;;;;6.03;4.53;;;;;;;-140.66;100.00;55571.53;5055826;28;20029;-69
2022/09/20 08:48:34;;;;;;;67.13;39.33;;;;;;;-140.66;100.00;55571.53;5059339;28;20441;-70
2022/09/20 08:51:22;;;;;;;3.65;2.15;;;;;;;-140.66;100.00;55571.53;5059554;28;20415;-70
2022/09/20 08:54:14;;;;;;;1.90;1.63;;;;;;;-140.66;100.00;55571.53;5059057;28;20040;-69
2022/09/20 08:57:13;;;;;;;5.20;2.13;;;;;;;-140.66;100.00;55571.53;5044472;28;20118;-69
2022/09/20 09:00:00;;;;;;;4.07;2.28;;;;;;;-140.66;100.00;55571.53;5059496;28;20098;-69
2022/09/20 09:02:49;;;;;;;2.80;1.83;;;;;;;-140.66;100.00;55571.53;5058312;28;20369;-70
2022/09/20 09:05:49;;;;;;;4.82;2.15;;;;;;;-140.66;100.00;55571.53;5058526;28;20017;-70
2022/09/20 09:08:37;;;;;;;3.95;1.52;;;;;;;-140.66;100.00;55571.53;5042583;28;20029;-71
2022/09/20 09:11:23;;;;;;;6.53;1.80;;;;;;;-140.66;100.00;55571.53;5055563;28;20028;-70
2022/09/20 09:14:47;;;;;;;6.72;1.98;;;;;;;-140.66;100.00;55571.53;5055090;28;20037;-70
2022/09/20 09:17:34;;;;;;;3.03;1.60;;;;;;;-140.66;100.00;55571.53;5054340;28;20037;-70
2022/09/20 09:20:21;;;;;;;4.32;1.80;;;;;;;-140.66;100.00;55571.53;5054732;28;20315;-71
2022/09/20 09:23:24;;;;;;;2.92;1.83;;;;;;;-140.66;100.00;55571.53;5055295;28;20029;-70
2022/09/20 09:26:20;;;;;;;2.22;1.80;;;;;;;-140.66;100.00;55571.53;5054860;28;20319;-70
2022/09/20 09:29:17;;;;;;;3.47;2.33;;;;;;;-140.66;100.00;55571.53;5054906;28;20067;-70
2022/09/20 09:32:38;;;;;;;5.20;1.95;;;;;;;-140.66;100.00;55571.53;5055003;28;20044;-70
2022/09/20 09:35:29;;;;;;;3.72;1.50;;;;;;;-140.66;100.00;55571.53;4994116;28;20050;-69
2022/09/20 09:38:20;;;;;;;1.85;1.50;;;;;;;-140.66;100.00;55571.53;5055638;28;20056;-70
2022/09/20 09:41:34;;;;;;;4.68;1.60;;;;;;;-140.66;100.00;55571.53;5039702;28;20036;-71
2022/09/20 09:44:27;;;;;;;1.63;1.30;;;;;;;-140.66;100.00;55571.53;5055413;28;20439;-70
2022/09/20 09:47:27;;;;;;;5.53;1.58;;;;;;;-140.66;100.00;55571.53;5039677;28;20059;-70
2022/09/20 09:50:25;;;;;;;5.55;2.15;;;;;;;-140.66;100.00;55571.53;5054549;28;20106;-70
2022/09/20 09:53:14;;;;;;;9.82;1.98;;;;;;;-140.66;100.00;55571.53;5039220;28;20098;-69
2022/09/20 09:56:09;;;;;;;6.07;1.40;;;;;;;-140.66;100.00;55571.53;5054035;28;20041;-69
2022/09/20 09:59:25;;;;;;;5.30;1.40;;;;;;;-140.66;100.00;55571.53;5039897;28;20354;-70
2022/09/20 10:02:11;;;;;;;3.63;1.30;;;;;;;-140.66;100.00;55571.53;5054287;28;20075;-69
2022/09/20 10:05:14;;;;;;;3.97;1.50;;;;;;;-140.66;100.00;55571.53;5054223;28;20028;-70
2022/09/20 10:08:09;;;;;;;4.45;1.80;;;;;;;-140.66;100.00;55571.53;5056485;28;20057;-70
2022/09/20 10:11:07;;;;;;;4.63;2.00;;;;;;;-140.66;100.00;55571.53;5038936;28;20102;-70
2022/09/20 10:14:04;;;;;;;2.95;1.48;;;;;;;-140.66;100.00;55571.53;5053808;28;20049;-70
2022/09/20 10:17:18;;;;;;;3.05;2.05;;;;;;;-140.66;100.00;55571.53;5038859;28;20025;-71
2022/09/20 10:20:38;;;;;;;3.88;2.60;;;;;;;-140.66;100.00;55571.53;5054833;28;20111;-69
2022/09/20 10:23:31;;;;;;;2.47;1.48;;;;;;;-140.66;100.00;55571.53;5054687;28;20099;-71
2022/09/20 10:26:22;;;;;;;2.40;1.40;;;;;;;-140.66;100.00;55571.53;5054655;28;20519;-70
2022/09/20 10:29:56;;;;;;;11.02;9.65;;;;;;;-140.66;100.00;55571.53;5054743;28;20086;-71
2022/09/20 10:33:02;;;;;;;3.30;1.52;;;;;;;-140.66;100.00;55571.53;4991908;28;20109;-70
2022/09/20 10:36:08;;;;;;;3.03;1.45;;;;;;;-140.66;100.00;55571.53;5039096;28;20029;-70
2022/09/20 10:39:10;;;;;;;4.80;1.58;;;;;;;-140.66;100.00;55571.53;5054117;28;20338;-72
2022/09/20 10:45:18;;;;;;;1.67;1.23;;;;;;;-140.66;100.00;55571.53;5053522;28;20060;-70
2022/09/20 10:48:17;;;;;;;3.95;1.40;;;;;;;-140.66;100.00;55571.53;5053862;28;20029;-70
2022/09/20 10:51:38;;;;;;;5.13;2.25;;;;;;;-140.66;100.00;55571.53;5038754;28;20035;-70
2022/09/20 10:54:38;;;;;;;3.40;1.70;;;;;;;-140.66;100.00;55571.53;5028999;28;20107;-71
2022/09/20 10:57:51;;;;;;;4.78;1.08;;;;;;;-140.66;100.00;55571.53;5054741;28;20103;-72
2022/09/20 11:01:01;;;;;;;4.20;1.10;;;;;;;-140.66;100.00;55571.53;5052785;28;20425;-73
2022/09/20 11:04:06;;;;;;;2.20;1.10;;;;;;;-140.66;100.00;55571.53;5039406;28;20029;-73
2022/09/20 11:07:25;;;;;;;3.88;1.00;;;;;;;-140.66;100.00;55571.53;5038699;28;20419;-72
2022/09/20 11:10:35;;;;;;;2.17;0.80;;;;;;;-140.66;100.00;55571.53;5053692;28;20028;-72
2022/09/20 11:13:37;;;;;;;6.40;1.00;;;;;;;-140.66;100.00;55571.53;5053905;28;20021;-72
2022/09/20 11:16:37;;;;;;;3.67;1.08;;;;;;;-140.66;100.00;55571.53;5053976;28;20457;-72
2022/09/20 11:19:47;;;;;;;2.17;1.13;;;;;;;-140.66;100.00;55571.53;5053510;28;20028;-73
2022/09/20 11:22:39;;;;;;;2.95;1.00;;;;;;;-140.66;100.00;55571.53;5032983;28;20033;-72
2022/09/20 11:25:30;;;;;;;1.50;0.82;;;;;;;-140.66;100.00;55571.53;5054052;28;20102;-73
2022/09/20 11:28:24;;;;;;;1.48;0.90;;;;;;;-140.66;100.00;55571.53;5056913;28;20117;-73
2022/09/20 11:31:13;;;;;;;2.15;0.80;;;;;;;-140.66;100.00;55571.53;5057662;28;20028;-73
2022/09/20 11:34:24;;;;;;;1.27;0.80;;;;;;;-140.66;100.00;55571.53;5056798;28;20362;-72
2022/09/20 11:37:10;;;;;;;0.68;0.68;;;;;;;-140.66;100.00;55571.53;5029060;28;20040;-74
2022/09/20 11:40:14;;;;;;;1.00;0.70;;;;;;;-140.66;100.00;55571.53;5057177;28;20465;-72
2022/09/20 11:43:05;;;;;;;3.65;0.80;;;;;;;-140.66;100.00;55571.53;5057275;28;20052;-73
2022/09/20 11:45:56;;;;;;;1.05;0.73;;;;;;;-140.66;100.00;55571.53;5057209;28;20055;-72
2022/09/20 11:49:16;;;;;;;1.65;0.98;;;;;;;-140.66;100.00;55571.53;5056940;28;20423;-72
2022/09/20 11:52:27;;;;;;;1.50;0.80;;;;;;;-140.66;100.00;55571.53;5031643;28;20350;-73
2022/09/20 11:55:43;;;;;;;1.90;0.98;;;;;;;-140.66;100.00;55571.53;5056412;28;20051;-72
2022/09/20 11:58:30;;;;;;;2.65;0.85;;;;;;;-140.66;100.00;55571.53;5042926;28;20021;-73
2022/09/20 12:01:24;;;;;;;1.23;0.82;;;;;;;-140.66;100.00;55571.53;5056290;28;20348;-72
2022/09/20 12:04:24;;;;;;;2.70;0.75;;;;;;;-140.66;100.00;55571.53;5041243;28;20033;-71
2022/09/20 12:07:18;;;;;;;1.48;0.90;;;;;;;-140.66;100.00;55571.53;5056392;28;20025;-72
2022/09/20 12:10:19;;;;;;;2.85;1.00;;;;;;;-140.66;100.00;55571.53;5056198;28;20021;-72
2022/09/20 12:13:17;;;;;;;1.30;0.80;;;;;;;-140.66;100.00;55571.53;5056503;28;20127;-73
2022/09/20 12:16:13;;;;;;;3.15;1.40;;;;;;;-140.66;100.00;55571.53;5056711;28;20033;-71
2022/09/20 12:19:05;;;;;;;3.38;1.27;;;;;;;-140.66;100.00;55571.53;5056164;28;20147;-73
2022/09/20 12:21:57;;;;;;;2.38;1.40;;;;;;;-140.66;100.00;55571.53;5056493;28;20381;-72
2022/09/20 12:24:43;;;;;;;1.00;0.90;;;;;;;-140.66;100.00;55571.53;5055968;28;20025;-72
2022/09/20 12:27:30;;;;;;;1.10;0.90;;;;;;;-140.66;100.00;55571.53;5056758;28;20068;-72
2022/09/20 12:30:19;;;;;;;2.42;0.90;;;;;;;-140.66;100.00;55571.53;5056128;28;20029;-73
2022/09/20 12:33:18;;;;;;;2.25;0.90;;;;;;;-140.66;100.00;55571.53;5041393;28;20044;-73
2022/09/20 12:36:16;;;;;;;4.72;1.15;;;;;;;-140.66;100.00;55571.53;5056131;28;20416;-72
2022/09/20 12:39:10;;;;;;;2.28;0.90;;;;;;;-140.66;100.00;55571.53;5055381;28;20353;-71
2022/09/20 12:42:09;;;;;;;4.80;1.00;;;;;;;-140.66;100.00;55571.53;5041212;28;20044;-71
2022/09/20 12:45:16;;;;;;;2.67;0.73;;;;;;;-140.66;100.00;55571.53;5056093;28;20096;-72
2022/09/20 12:48:02;;;;;;;1.95;0.98;;;;;;;-140.66;100.00;55571.53;5055487;28;20056;-72
2022/09/20 12:54:22;;;;;;;6.22;1.00;;;;;;;-140.66;100.00;55571.53;5055405;28;20025;-72
2022/09/20 12:57:30;;;;;;;1.00;0.80;;;;;;;-140.66;100.00;55571.53;5040594;28;20045;-71
2022/09/20 13:00:30;;;;;;;1.25;0.70;;;;;;;-140.66;100.00;55571.53;5056136;28;20020;-72
2022/09/20 13:03:22;;;;;;;1.20;1.00;;;;;;;-140.66;100.00;55571.53;5055722;28;20033;-72
2022/09/20 13:06:11;;;;;;;3.53;0.80;;;;;;;-140.66;100.00;55571.53;5040426;28;20036;-72
2022/09/20 13:09:03;;;;;;;6.90;1.00;;;;;;;-140.66;100.00;55571.53;5055731;28;20059;-72
2022/09/20 13:11:53;;;;;;;6.78;1.20;;;;;;;-140.66;100.00;55571.53;5055651;28;20457;-72
2022/09/20 13:14:39;;;;;;;1.20;0.93;;;;;;;-140.66;100.00;55571.53;5054992;28;20056;-71
2022/09/20 13:17:29;;;;;;;8.68;3.10;;;;;;;-140.66;100.00;55571.53;5055159;28;20036;-72
2022/09/20 13:20:21;;;;;;;2.72;0.80;;;;;;;-140.66;100.00;55571.53;5055027;28;20464;-73
2022/09/20 13:23:20;;;;;;;1.58;0.80;;;;;;;-140.66;100.00;55571.53;5055232;28;20037;-73
2022/09/20 13:26:12;;;;;;;1.38;0.98;;;;;;;-140.66;100.00;55571.53;5054987;28;20394;-72
2022/09/20 13:28:58;;;;;;;1.95;0.90;;;;;;;-140.66;100.00;55571.53;5055063;28;20047;-71
2022/09/20 13:31:44;;;;;;;2.13;1.67;;;;;;;-140.66;100.00;55571.53;5057329;28;20089;-72
2022/09/20 13:34:30;;;;;;;15.50;7.30;;;;;;;-140.66;100.00;55571.53;5054290;28;20025;-70
2022/09/20 13:37:22;;;;;;;4.88;1.77;;;;;;;-140.66;100.00;55571.53;5054523;28;20061;-72
2022/09/20 13:40:24;;;;;;;6.55;1.75;;;;;;;-140.66;100.00;55571.53;5053906;28;20037;-72